sensor_id;sensor_type;location;lat;lon;timestamp;temperature;humidity
15217;DHT22;7711;46.634;14.318;2023-08-01T00:01:30;17.40;1.00
15217;DHT22;7711;46.634;14.318;2023-08-01T00:03:57;17.50;1.00
15217;DHT22;7711;46.634;14.318;2023-08-01T00:06:24;17.50;1.00
15217;DHT22;7711;46.634;14.318;2023-08-01T00:08:51;17.50;1.00
15217;DHT22;7711;46.634;14.318;2023-08-01T00:11:19;17.40;1.00
15217;DHT22;7711;46.634;14.318;2023-08-01T00:13:46;17.40;1.00
15217;DHT22;7711;46.634;14.318;2023-08-01T00:16:14;17.50;1.00
15217;DHT22;7711;46.634;14.318;2023-08-01T00:18:42;17.40;1.00
15217;DHT22;7711;46.634;14.318;2023-08-01T00:21:12;17.40;1.00
15217;DHT22;7711;46.634;14.318;2023-08-01T00:23:40;17.20;94.40
15217;DHT22;7711;46.634;14.318;2023-08-01T00:26:11;17.10;99.90
15217;DHT22;7711;46.634;14.318;2023-08-01T00:28:44;17.10;1.00
15217;DHT22;7711;46.634;14.318;2023-08-01T00:31:12;17.00;1.00
15217;DHT22;7711;46.634;14.318;2023-08-01T00:33:40;17.00;1.00
15217;DHT22;7711;46.634;14.318;2023-08-01T00:36:07;17.00;1.00
15217;DHT22;7711;46.634;14.318;2023-08-01T00:38:36;17.10;1.00
15217;DHT22;7711;46.634;14.318;2023-08-01T00:41:04;17.10;1.00
15217;DHT22;7711;46.634;14.318;2023-08-01T00:43:31;17.10;99.90
15217;DHT22;7711;46.634;14.318;2023-08-01T00:46:03;17.10;99.90
15217;DHT22;7711;46.634;14.318;2023-08-01T00:48:32;17.00;99.90
15217;DHT22;7711;46.634;14.318;2023-08-01T00:51:03;17.00;99.90
15217;DHT22;7711;46.634;14.318;2023-08-01T00:53:32;16.90;1.00
15217;DHT22;7711;46.634;14.318;2023-08-01T00:56:01;16.80;1.00
15217;DHT22;7711;46.634;14.318;2023-08-01T00:58:29;16.90;1.00
15217;DHT22;7711;46.634;14.318;2023-08-01T01:00:58;16.90;1.00
15217;DHT22;7711;46.634;14.318;2023-08-01T01:03:27;16.90;1.00
15217;DHT22;7711;46.634;14.318;2023-08-01T01:06:02;17.00;1.00
15217;DHT22;7711;46.634;14.318;2023-08-01T01:08:33;16.90;1.00
15217;DHT22;7711;46.634;14.318;2023-08-01T01:10:59;16.90;1.00
15217;DHT22;7711;46.634;14.318;2023-08-01T01:13:26;16.80;1.00
15217;DHT22;7711;46.634;14.318;2023-08-01T01:15:53;16.90;1.00
15217;DHT22;7711;46.634;14.318;2023-08-01T01:18:20;16.80;1.00
15217;DHT22;7711;46.634;14.318;2023-08-01T01:20:48;16.90;1.00
15217;DHT22;7711;46.634;14.318;2023-08-01T01:23:16;16.90;1.00
15217;DHT22;7711;46.634;14.318;2023-08-01T01:25:43;16.90;99.90
15217;DHT22;7711;46.634;14.318;2023-08-01T01:28:11;16.80;1.00
15217;DHT22;7711;46.634;14.318;2023-08-01T01:30:40;16.70;1.00
15217;DHT22;7711;46.634;14.318;2023-08-01T01:33:08;16.60;1.00
15217;DHT22;7711;46.634;14.318;2023-08-01T01:35:36;16.60;2.80
15217;DHT22;7711;46.634;14.318;2023-08-01T01:38:04;16.70;55.70
15217;DHT22;7711;46.634;14.318;2023-08-01T01:40:32;16.60;55.80
15217;DHT22;7711;46.634;14.318;2023-08-01T01:42:59;16.60;99.90
15217;DHT22;7711;46.634;14.318;2023-08-01T01:45:26;16.60;96.00
15217;DHT22;7711;46.634;14.318;2023-08-01T01:47:53;16.60;1.00
15217;DHT22;7711;46.634;14.318;2023-08-01T01:50:20;16.60;1.00
15217;DHT22;7711;46.634;14.318;2023-08-01T01:52:47;16.60;1.00
15217;DHT22;7711;46.634;14.318;2023-08-01T01:55:16;16.50;17.00
15217;DHT22;7711;46.634;14.318;2023-08-01T01:57:43;16.50;99.90
15217;DHT22;7711;46.634;14.318;2023-08-01T02:00:11;16.50;1.00
15217;DHT22;7711;46.634;14.318;2023-08-01T02:02:38;16.40;76.50
15217;DHT22;7711;46.634;14.318;2023-08-01T02:05:05;16.40;99.90
15217;DHT22;7711;46.634;14.318;2023-08-01T02:07:32;16.50;1.00
15217;DHT22;7711;46.634;14.318;2023-08-01T02:10:00;16.30;1.00
15217;DHT22;7711;46.634;14.318;2023-08-01T02:12:28;16.30;99.90
15217;DHT22;7711;46.634;14.318;2023-08-01T02:14:57;16.30;1.00
15217;DHT22;7711;46.634;14.318;2023-08-01T02:17:24;16.30;99.90
15217;DHT22;7711;46.634;14.318;2023-08-01T02:19:51;16.40;99.90
15217;DHT22;7711;46.634;14.318;2023-08-01T02:22:18;16.40;99.90
15217;DHT22;7711;46.634;14.318;2023-08-01T02:24:45;16.40;99.90
15217;DHT22;7711;46.634;14.318;2023-08-01T02:27:11;16.30;1.00
15217;DHT22;7711;46.634;14.318;2023-08-01T02:29:40;16.30;99.90
15217;DHT22;7711;46.634;14.318;2023-08-01T02:32:08;16.20;1.00
15217;DHT22;7711;46.634;14.318;2023-08-01T02:34:34;16.20;1.00
15217;DHT22;7711;46.634;14.318;2023-08-01T02:37:01;16.30;1.00
15217;DHT22;7711;46.634;14.318;2023-08-01T02:39:28;16.20;99.90
15217;DHT22;7711;46.634;14.318;2023-08-01T02:41:55;16.20;1.00
15217;DHT22;7711;46.634;14.318;2023-08-01T02:44:22;16.20;1.00
15217;DHT22;7711;46.634;14.318;2023-08-01T02:46:51;16.10;99.90
15217;DHT22;7711;46.634;14.318;2023-08-01T02:49:18;16.10;1.00
15217;DHT22;7711;46.634;14.318;2023-08-01T02:51:45;16.00;24.30
15217;DHT22;7711;46.634;14.318;2023-08-01T02:54:12;16.10;1.00
15217;DHT22;7711;46.634;14.318;2023-08-01T02:56:38;16.10;1.00
15217;DHT22;7711;46.634;14.318;2023-08-01T02:59:06;16.00;1.00
15217;DHT22;7711;46.634;14.318;2023-08-01T03:01:34;16.10;99.90
15217;DHT22;7711;46.634;14.318;2023-08-01T03:04:03;16.10;77.00
15217;DHT22;7711;46.634;14.318;2023-08-01T03:06:30;16.10;1.00
15217;DHT22;7711;46.634;14.318;2023-08-01T03:08:57;16.10;99.90
15217;DHT22;7711;46.634;14.318;2023-08-01T03:11:24;16.10;1.00
15217;DHT22;7711;46.634;14.318;2023-08-01T03:13:51;16.10;1.00
15217;DHT22;7711;46.634;14.318;2023-08-01T03:16:18;16.10;1.00
15217;DHT22;7711;46.634;14.318;2023-08-01T03:18:45;16.10;1.00
15217;DHT22;7711;46.634;14.318;2023-08-01T03:21:13;16.10;1.00
15217;DHT22;7711;46.634;14.318;2023-08-01T03:23:40;16.00;1.00
15217;DHT22;7711;46.634;14.318;2023-08-01T03:26:07;16.10;1.00
15217;DHT22;7711;46.634;14.318;2023-08-01T03:28:34;16.00;1.00
15217;DHT22;7711;46.634;14.318;2023-08-01T03:31:01;15.90;1.00
15217;DHT22;7711;46.634;14.318;2023-08-01T03:33:28;15.90;99.90
15217;DHT22;7711;46.634;14.318;2023-08-01T03:35:55;16.00;99.90
15217;DHT22;7711;46.634;14.318;2023-08-01T03:38:23;16.00;1.00
15217;DHT22;7711;46.634;14.318;2023-08-01T03:40:50;16.00;1.00
15217;DHT22;7711;46.634;14.318;2023-08-01T03:43:17;16.00;1.00
15217;DHT22;7711;46.634;14.318;2023-08-01T03:45:48;16.00;99.90
15217;DHT22;7711;46.634;14.318;2023-08-01T03:48:15;15.90;1.00
15217;DHT22;7711;46.634;14.318;2023-08-01T03:50:42;15.80;99.90
15217;DHT22;7711;46.634;14.318;2023-08-01T03:53:09;15.90;1.00
15217;DHT22;7711;46.634;14.318;2023-08-01T03:55:38;15.80;1.00
15217;DHT22;7711;46.634;14.318;2023-08-01T03:58:05;15.90;1.00
15217;DHT22;7711;46.634;14.318;2023-08-01T04:00:32;16.00;1.00
15217;DHT22;7711;46.634;14.318;2023-08-01T04:02:59;16.00;99.90
15217;DHT22;7711;46.634;14.318;2023-08-01T04:05:27;16.00;99.90
15217;DHT22;7711;46.634;14.318;2023-08-01T04:07:54;16.10;80.40
15217;DHT22;7711;46.634;14.318;2023-08-01T04:10:21;16.10;1.00
15217;DHT22;7711;46.634;14.318;2023-08-01T04:12:49;16.10;99.90
15217;DHT22;7711;46.634;14.318;2023-08-01T04:15:16;16.30;1.00
15217;DHT22;7711;46.634;14.318;2023-08-01T04:17:43;16.20;1.00
15217;DHT22;7711;46.634;14.318;2023-08-01T04:20:11;16.30;1.00
15217;DHT22;7711;46.634;14.318;2023-08-01T04:22:38;16.40;1.00
15217;DHT22;7711;46.634;14.318;2023-08-01T04:25:05;16.40;1.00
15217;DHT22;7711;46.634;14.318;2023-08-01T04:27:32;16.50;1.00
15217;DHT22;7711;46.634;14.318;2023-08-01T04:30:01;16.50;99.90
15217;DHT22;7711;46.634;14.318;2023-08-01T04:32:27;16.40;99.90
15217;DHT22;7711;46.634;14.318;2023-08-01T04:34:54;16.40;99.90
15217;DHT22;7711;46.634;14.318;2023-08-01T04:37:21;16.40;99.90
15217;DHT22;7711;46.634;14.318;2023-08-01T04:39:49;16.50;99.90
15217;DHT22;7711;46.634;14.318;2023-08-01T04:42:15;16.50;99.90
15217;DHT22;7711;46.634;14.318;2023-08-01T04:44:42;16.50;99.90
15217;DHT22;7711;46.634;14.318;2023-08-01T04:47:11;16.50;99.90
15217;DHT22;7711;46.634;14.318;2023-08-01T04:49:38;16.50;99.90
15217;DHT22;7711;46.634;14.318;2023-08-01T04:52:05;16.50;99.90
15217;DHT22;7711;46.634;14.318;2023-08-01T04:54:32;16.40;99.90
15217;DHT22;7711;46.634;14.318;2023-08-01T04:56:59;16.50;99.90
15217;DHT22;7711;46.634;14.318;2023-08-01T04:59:26;16.50;99.90
15217;DHT22;7711;46.634;14.318;2023-08-01T05:01:53;16.60;99.90
15217;DHT22;7711;46.634;14.318;2023-08-01T05:04:21;16.60;82.50
15217;DHT22;7711;46.634;14.318;2023-08-01T05:06:48;16.70;51.20
15217;DHT22;7711;46.634;14.318;2023-08-01T05:09:15;16.70;59.10
15217;DHT22;7711;46.634;14.318;2023-08-01T05:11:42;16.90;19.90
15217;DHT22;7711;46.634;14.318;2023-08-01T05:14:09;16.80;1.00
15217;DHT22;7711;46.634;14.318;2023-08-01T05:16:36;16.90;1.00
15217;DHT22;7711;46.634;14.318;2023-08-01T05:19:03;17.20;1.00
15217;DHT22;7711;46.634;14.318;2023-08-01T05:21:31;17.30;1.00
15217;DHT22;7711;46.634;14.318;2023-08-01T05:23:58;17.30;1.00
15217;DHT22;7711;46.634;14.318;2023-08-01T05:26:25;17.30;1.00
15217;DHT22;7711;46.634;14.318;2023-08-01T05:28:52;17.30;1.00
15217;DHT22;7711;46.634;14.318;2023-08-01T05:31:19;17.30;1.00
15217;DHT22;7711;46.634;14.318;2023-08-01T05:33:46;17.40;1.00
15217;DHT22;7711;46.634;14.318;2023-08-01T05:36:13;17.50;1.00
15217;DHT22;7711;46.634;14.318;2023-08-01T05:38:41;17.60;1.00
15217;DHT22;7711;46.634;14.318;2023-08-01T05:41:08;17.50;1.00
15217;DHT22;7711;46.634;14.318;2023-08-01T05:43:35;17.60;1.00
15217;DHT22;7711;46.634;14.318;2023-08-01T05:46:02;17.80;1.00
15217;DHT22;7711;46.634;14.318;2023-08-01T05:48:29;17.80;1.00
15217;DHT22;7711;46.634;14.318;2023-08-01T05:50:55;17.80;1.00
15217;DHT22;7711;46.634;14.318;2023-08-01T05:53:23;17.80;1.00
15217;DHT22;7711;46.634;14.318;2023-08-01T05:55:52;17.90;1.00
15217;DHT22;7711;46.634;14.318;2023-08-01T05:58:19;17.70;1.00
15217;DHT22;7711;46.634;14.318;2023-08-01T06:00:46;17.70;1.00
15217;DHT22;7711;46.634;14.318;2023-08-01T06:03:13;17.60;1.00
15217;DHT22;7711;46.634;14.318;2023-08-01T06:05:39;17.40;1.00
15217;DHT22;7711;46.634;14.318;2023-08-01T06:08:07;17.50;1.00
15217;DHT22;7711;46.634;14.318;2023-08-01T06:10:34;17.50;1.00
15217;DHT22;7711;46.634;14.318;2023-08-01T06:13:02;17.60;1.00
15217;DHT22;7711;46.634;14.318;2023-08-01T06:15:29;17.80;1.00
15217;DHT22;7711;46.634;14.318;2023-08-01T06:17:56;18.20;1.00
15217;DHT22;7711;46.634;14.318;2023-08-01T06:20:23;18.20;1.00
15217;DHT22;7711;46.634;14.318;2023-08-01T06:22:50;18.40;1.00
15217;DHT22;7711;46.634;14.318;2023-08-01T06:25:17;18.90;1.00
15217;DHT22;7711;46.634;14.318;2023-08-01T06:27:44;19.30;1.00
15217;DHT22;7711;46.634;14.318;2023-08-01T06:30:13;19.30;1.00
15217;DHT22;7711;46.634;14.318;2023-08-01T06:32:40;19.70;1.00
15217;DHT22;7711;46.634;14.318;2023-08-01T06:35:07;19.60;1.00
15217;DHT22;7711;46.634;14.318;2023-08-01T06:37:34;19.80;1.00
15217;DHT22;7711;46.634;14.318;2023-08-01T06:40:01;19.70;1.00
15217;DHT22;7711;46.634;14.318;2023-08-01T06:42:29;19.60;1.00
15217;DHT22;7711;46.634;14.318;2023-08-01T06:44:56;19.90;1.00
15217;DHT22;7711;46.634;14.318;2023-08-01T06:47:25;20.00;1.00
15217;DHT22;7711;46.634;14.318;2023-08-01T06:49:52;20.00;1.00
15217;DHT22;7711;46.634;14.318;2023-08-01T06:52:19;20.00;1.00
15217;DHT22;7711;46.634;14.318;2023-08-01T06:54:46;20.20;1.00
15217;DHT22;7711;46.634;14.318;2023-08-01T06:57:13;20.00;1.00
15217;DHT22;7711;46.634;14.318;2023-08-01T06:59:40;20.00;1.00
15217;DHT22;7711;46.634;14.318;2023-08-01T07:02:07;20.20;1.00
15217;DHT22;7711;46.634;14.318;2023-08-01T07:04:35;20.40;1.00
15217;DHT22;7711;46.634;14.318;2023-08-01T07:07:03;20.70;1.00
15217;DHT22;7711;46.634;14.318;2023-08-01T07:09:30;20.70;99.90
15217;DHT22;7711;46.634;14.318;2023-08-01T07:11:57;20.70;99.90
15217;DHT22;7711;46.634;14.318;2023-08-01T07:14:24;20.50;99.90
15217;DHT22;7711;46.634;14.318;2023-08-01T07:16:51;20.50;99.90
15217;DHT22;7711;46.634;14.318;2023-08-01T07:19:18;20.60;99.90
15217;DHT22;7711;46.634;14.318;2023-08-01T07:21:46;20.90;99.90
15217;DHT22;7711;46.634;14.318;2023-08-01T07:24:14;21.10;99.90
15217;DHT22;7711;46.634;14.318;2023-08-01T07:26:41;21.30;99.90
15217;DHT22;7711;46.634;14.318;2023-08-01T07:29:08;21.40;99.90
15217;DHT22;7711;46.634;14.318;2023-08-01T07:31:37;21.20;99.90
15217;DHT22;7711;46.634;14.318;2023-08-01T07:34:04;20.90;99.90
15217;DHT22;7711;46.634;14.318;2023-08-01T07:36:30;21.10;99.90
15217;DHT22;7711;46.634;14.318;2023-08-01T07:38:59;21.20;99.90
15217;DHT22;7711;46.634;14.318;2023-08-01T07:41:26;20.90;99.90
15217;DHT22;7711;46.634;14.318;2023-08-01T07:43:53;20.90;99.90
15217;DHT22;7711;46.634;14.318;2023-08-01T07:46:19;20.90;99.90
15217;DHT22;7711;46.634;14.318;2023-08-01T07:48:46;20.80;99.90
15217;DHT22;7711;46.634;14.318;2023-08-01T07:51:14;20.60;99.90
15217;DHT22;7711;46.634;14.318;2023-08-01T07:53:42;20.80;99.90
15217;DHT22;7711;46.634;14.318;2023-08-01T07:56:10;20.70;99.90
15217;DHT22;7711;46.634;14.318;2023-08-01T07:58:37;20.90;99.90
15217;DHT22;7711;46.634;14.318;2023-08-01T08:01:04;20.80;99.90
15217;DHT22;7711;46.634;14.318;2023-08-01T08:03:32;20.80;99.90
15217;DHT22;7711;46.634;14.318;2023-08-01T08:05:59;20.70;99.90
15217;DHT22;7711;46.634;14.318;2023-08-01T08:08:26;20.90;99.90
15217;DHT22;7711;46.634;14.318;2023-08-01T08:10:53;21.10;99.90
15217;DHT22;7711;46.634;14.318;2023-08-01T08:13:21;21.40;99.90
15217;DHT22;7711;46.634;14.318;2023-08-01T08:15:49;21.30;99.90
15217;DHT22;7711;46.634;14.318;2023-08-01T08:18:16;21.10;99.90
15217;DHT22;7711;46.634;14.318;2023-08-01T08:20:45;20.80;99.90
15217;DHT22;7711;46.634;14.318;2023-08-01T08:23:12;20.80;99.90
15217;DHT22;7711;46.634;14.318;2023-08-01T08:25:40;21.30;99.90
15217;DHT22;7711;46.634;14.318;2023-08-01T08:28:08;21.70;99.90
15217;DHT22;7711;46.634;14.318;2023-08-01T08:30:36;21.80;99.90
15217;DHT22;7711;46.634;14.318;2023-08-01T08:33:03;21.90;99.90
15217;DHT22;7711;46.634;14.318;2023-08-01T08:35:32;21.80;99.90
15217;DHT22;7711;46.634;14.318;2023-08-01T08:38:01;22.30;99.90
15217;DHT22;7711;46.634;14.318;2023-08-01T08:40:28;22.60;99.90
15217;DHT22;7711;46.634;14.318;2023-08-01T08:42:55;22.80;99.90
15217;DHT22;7711;46.634;14.318;2023-08-01T08:45:23;22.60;99.90
15217;DHT22;7711;46.634;14.318;2023-08-01T08:47:55;22.40;99.90
15217;DHT22;7711;46.634;14.318;2023-08-01T08:50:23;22.20;99.90
15217;DHT22;7711;46.634;14.318;2023-08-01T08:52:51;22.00;99.90
15217;DHT22;7711;46.634;14.318;2023-08-01T08:55:19;22.00;99.90
15217;DHT22;7711;46.634;14.318;2023-08-01T08:57:49;21.80;99.90
15217;DHT22;7711;46.634;14.318;2023-08-01T09:00:17;21.70;99.90
15217;DHT22;7711;46.634;14.318;2023-08-01T09:02:45;21.50;99.90
15217;DHT22;7711;46.634;14.318;2023-08-01T09:05:13;21.40;99.90
15217;DHT22;7711;46.634;14.318;2023-08-01T09:07:43;21.30;99.90
15217;DHT22;7711;46.634;14.318;2023-08-01T09:10:11;21.10;99.90
15217;DHT22;7711;46.634;14.318;2023-08-01T09:12:38;21.00;99.90
15217;DHT22;7711;46.634;14.318;2023-08-01T09:15:07;20.90;99.90
15217;DHT22;7711;46.634;14.318;2023-08-01T09:17:34;20.70;99.90
15217;DHT22;7711;46.634;14.318;2023-08-01T09:20:05;20.70;99.90
15217;DHT22;7711;46.634;14.318;2023-08-01T09:22:43;20.70;99.90
15217;DHT22;7711;46.634;14.318;2023-08-01T09:25:10;20.70;99.90
15217;DHT22;7711;46.634;14.318;2023-08-01T09:27:37;20.60;99.90
15217;DHT22;7711;46.634;14.318;2023-08-01T09:30:09;20.60;99.90
15217;DHT22;7711;46.634;14.318;2023-08-01T09:32:37;20.50;99.90
15217;DHT22;7711;46.634;14.318;2023-08-01T09:35:04;20.30;99.90
15217;DHT22;7711;46.634;14.318;2023-08-01T09:37:42;20.30;99.90
15217;DHT22;7711;46.634;14.318;2023-08-01T09:40:10;20.30;99.90
15217;DHT22;7711;46.634;14.318;2023-08-01T09:42:38;20.10;99.90
15217;DHT22;7711;46.634;14.318;2023-08-01T09:45:17;20.10;1.00
15217;DHT22;7711;46.634;14.318;2023-08-01T09:47:45;20.10;1.00
15217;DHT22;7711;46.634;14.318;2023-08-01T09:50:19;20.00;1.00
15217;DHT22;7711;46.634;14.318;2023-08-01T09:52:48;19.90;1.00
15217;DHT22;7711;46.634;14.318;2023-08-01T09:55:19;20.00;1.00
15217;DHT22;7711;46.634;14.318;2023-08-01T09:57:47;20.00;1.00
15217;DHT22;7711;46.634;14.318;2023-08-01T10:00:15;20.10;1.00
15217;DHT22;7711;46.634;14.318;2023-08-01T10:02:43;20.20;1.00
15217;DHT22;7711;46.634;14.318;2023-08-01T10:05:11;20.40;1.00
15217;DHT22;7711;46.634;14.318;2023-08-01T10:07:39;20.40;1.00
15217;DHT22;7711;46.634;14.318;2023-08-01T10:10:09;20.40;1.00
15217;DHT22;7711;46.634;14.318;2023-08-01T10:12:38;20.50;1.00
15217;DHT22;7711;46.634;14.318;2023-08-01T10:15:06;20.40;1.00
15217;DHT22;7711;46.634;14.318;2023-08-01T10:17:34;20.30;1.00
15217;DHT22;7711;46.634;14.318;2023-08-01T10:20:02;20.30;1.00
15217;DHT22;7711;46.634;14.318;2023-08-01T10:22:29;20.10;1.00
15217;DHT22;7711;46.634;14.318;2023-08-01T10:24:56;20.10;1.00
15217;DHT22;7711;46.634;14.318;2023-08-01T10:27:25;20.20;1.00
15217;DHT22;7711;46.634;14.318;2023-08-01T10:29:58;20.30;1.00
15217;DHT22;7711;46.634;14.318;2023-08-01T10:32:32;20.30;1.00
15217;DHT22;7711;46.634;14.318;2023-08-01T10:35:00;20.40;1.00
15217;DHT22;7711;46.634;14.318;2023-08-01T10:37:38;20.60;1.00
15217;DHT22;7711;46.634;14.318;2023-08-01T10:40:06;20.70;1.00
15217;DHT22;7711;46.634;14.318;2023-08-01T10:42:39;20.80;1.00
15217;DHT22;7711;46.634;14.318;2023-08-01T10:45:07;20.90;1.00
15217;DHT22;7711;46.634;14.318;2023-08-01T10:47:34;20.80;1.00
15217;DHT22;7711;46.634;14.318;2023-08-01T10:50:01;20.90;1.00
15217;DHT22;7711;46.634;14.318;2023-08-01T10:52:29;20.90;1.00
15217;DHT22;7711;46.634;14.318;2023-08-01T10:54:57;21.00;1.00
15217;DHT22;7711;46.634;14.318;2023-08-01T10:57:25;20.90;1.00
15217;DHT22;7711;46.634;14.318;2023-08-01T10:59:54;20.80;1.00
15217;DHT22;7711;46.634;14.318;2023-08-01T11:02:24;20.50;1.00
15217;DHT22;7711;46.634;14.318;2023-08-01T11:05:02;20.60;1.00
15217;DHT22;7711;46.634;14.318;2023-08-01T11:07:30;20.60;1.00
15217;DHT22;7711;46.634;14.318;2023-08-01T11:10:08;20.50;1.00
15217;DHT22;7711;46.634;14.318;2023-08-01T11:12:36;20.40;1.00
15217;DHT22;7711;46.634;14.318;2023-08-01T11:15:06;20.20;1.00
15217;DHT22;7711;46.634;14.318;2023-08-01T11:20:03;20.40;1.00
15217;DHT22;7711;46.634;14.318;2023-08-01T11:22:31;20.40;1.00
15217;DHT22;7711;46.634;14.318;2023-08-01T11:24:58;20.40;1.00
15217;DHT22;7711;46.634;14.318;2023-08-01T11:27:25;20.60;1.00
15217;DHT22;7711;46.634;14.318;2023-08-01T11:29:52;20.80;1.00
15217;DHT22;7711;46.634;14.318;2023-08-01T11:32:21;20.80;1.00
15217;DHT22;7711;46.634;14.318;2023-08-01T11:34:49;20.80;1.00
15217;DHT22;7711;46.634;14.318;2023-08-01T11:37:18;20.70;1.00
15217;DHT22;7711;46.634;14.318;2023-08-01T11:39:47;20.60;1.00
15217;DHT22;7711;46.634;14.318;2023-08-01T11:42:16;20.60;1.00
15217;DHT22;7711;46.634;14.318;2023-08-01T11:44:43;20.50;1.00
15217;DHT22;7711;46.634;14.318;2023-08-01T11:47:11;20.40;1.00
15217;DHT22;7711;46.634;14.318;2023-08-01T11:49:45;20.30;1.00
15217;DHT22;7711;46.634;14.318;2023-08-01T11:52:22;20.40;1.00
15217;DHT22;7711;46.634;14.318;2023-08-01T11:54:49;20.50;1.00
15217;DHT22;7711;46.634;14.318;2023-08-01T11:57:17;20.50;1.00
15217;DHT22;7711;46.634;14.318;2023-08-01T11:59:47;20.60;1.00
15217;DHT22;7711;46.634;14.318;2023-08-01T12:02:21;20.90;1.00
15217;DHT22;7711;46.634;14.318;2023-08-01T12:04:51;21.10;1.00
15217;DHT22;7711;46.634;14.318;2023-08-01T12:07:18;20.90;1.00
15217;DHT22;7711;46.634;14.318;2023-08-01T12:09:55;21.10;1.00
15217;DHT22;7711;46.634;14.318;2023-08-01T12:12:22;21.20;1.00
15217;DHT22;7711;46.634;14.318;2023-08-01T12:14:49;20.90;1.00
15217;DHT22;7711;46.634;14.318;2023-08-01T12:17:16;20.90;1.00
15217;DHT22;7711;46.634;14.318;2023-08-01T12:19:43;21.00;1.00
15217;DHT22;7711;46.634;14.318;2023-08-01T12:22:11;21.00;1.00
15217;DHT22;7711;46.634;14.318;2023-08-01T12:24:38;21.20;1.00
15217;DHT22;7711;46.634;14.318;2023-08-01T12:27:07;21.20;1.00
15217;DHT22;7711;46.634;14.318;2023-08-01T12:29:34;21.20;1.00
15217;DHT22;7711;46.634;14.318;2023-08-01T12:32:02;21.20;99.90
15217;DHT22;7711;46.634;14.318;2023-08-01T12:34:29;21.20;1.00
15217;DHT22;7711;46.634;14.318;2023-08-01T12:36:56;21.80;1.00
15217;DHT22;7711;46.634;14.318;2023-08-01T12:39:24;22.00;99.90
15217;DHT22;7711;46.634;14.318;2023-08-01T12:41:51;22.00;99.90
15217;DHT22;7711;46.634;14.318;2023-08-01T12:44:19;22.00;99.90
15217;DHT22;7711;46.634;14.318;2023-08-01T12:46:46;22.40;99.90
15217;DHT22;7711;46.634;14.318;2023-08-01T12:49:13;22.30;99.90
15217;DHT22;7711;46.634;14.318;2023-08-01T12:51:40;22.50;99.90
15217;DHT22;7711;46.634;14.318;2023-08-01T12:54:07;22.20;99.90
15217;DHT22;7711;46.634;14.318;2023-08-01T12:56:35;22.20;99.90
15217;DHT22;7711;46.634;14.318;2023-08-01T12:59:02;22.00;99.90
15217;DHT22;7711;46.634;14.318;2023-08-01T13:01:29;22.20;99.90
15217;DHT22;7711;46.634;14.318;2023-08-01T13:03:56;22.40;99.90
15217;DHT22;7711;46.634;14.318;2023-08-01T13:06:23;22.60;99.90
15217;DHT22;7711;46.634;14.318;2023-08-01T13:08:50;23.00;99.90
15217;DHT22;7711;46.634;14.318;2023-08-01T13:11:17;23.30;99.90
15217;DHT22;7711;46.634;14.318;2023-08-01T13:13:45;23.40;99.90
15217;DHT22;7711;46.634;14.318;2023-08-01T13:16:12;23.20;99.90
15217;DHT22;7711;46.634;14.318;2023-08-01T13:18:40;23.20;99.90
15217;DHT22;7711;46.634;14.318;2023-08-01T13:21:09;23.40;99.90
15217;DHT22;7711;46.634;14.318;2023-08-01T13:23:37;23.50;99.90
15217;DHT22;7711;46.634;14.318;2023-08-01T13:26:04;23.60;99.90
15217;DHT22;7711;46.634;14.318;2023-08-01T13:28:31;23.80;99.90
15217;DHT22;7711;46.634;14.318;2023-08-01T13:30:59;24.30;99.90
15217;DHT22;7711;46.634;14.318;2023-08-01T13:33:26;24.30;99.90
15217;DHT22;7711;46.634;14.318;2023-08-01T13:35:53;24.00;99.90
15217;DHT22;7711;46.634;14.318;2023-08-01T13:38:20;23.70;99.90
15217;DHT22;7711;46.634;14.318;2023-08-01T13:40:47;23.90;99.90
15217;DHT22;7711;46.634;14.318;2023-08-01T13:43:14;23.60;99.90
15217;DHT22;7711;46.634;14.318;2023-08-01T13:45:41;23.60;99.90
15217;DHT22;7711;46.634;14.318;2023-08-01T13:48:09;23.40;99.90
15217;DHT22;7711;46.634;14.318;2023-08-01T13:50:36;23.40;99.90
15217;DHT22;7711;46.634;14.318;2023-08-01T13:53:03;23.60;99.90
15217;DHT22;7711;46.634;14.318;2023-08-01T13:55:32;23.60;99.90
15217;DHT22;7711;46.634;14.318;2023-08-01T13:58:00;23.60;99.90
15217;DHT22;7711;46.634;14.318;2023-08-01T14:00:27;23.30;99.90
15217;DHT22;7711;46.634;14.318;2023-08-01T14:02:53;22.70;99.90
15217;DHT22;7711;46.634;14.318;2023-08-01T14:05:24;22.40;99.90
15217;DHT22;7711;46.634;14.318;2023-08-01T14:07:51;21.80;99.90
15217;DHT22;7711;46.634;14.318;2023-08-01T14:10:18;21.30;99.90
15217;DHT22;7711;46.634;14.318;2023-08-01T14:12:45;20.80;99.90
15217;DHT22;7711;46.634;14.318;2023-08-01T14:15:12;20.40;99.90
15217;DHT22;7711;46.634;14.318;2023-08-01T14:17:39;20.10;99.90
15217;DHT22;7711;46.634;14.318;2023-08-01T14:20:07;19.60;99.90
15217;DHT22;7711;46.634;14.318;2023-08-01T14:22:36;19.30;99.90
15217;DHT22;7711;46.634;14.318;2023-08-01T14:25:04;18.90;99.90
15217;DHT22;7711;46.634;14.318;2023-08-01T14:27:31;18.60;99.90
15217;DHT22;7711;46.634;14.318;2023-08-01T14:29:58;18.40;99.90
15217;DHT22;7711;46.634;14.318;2023-08-01T14:32:25;18.10;99.90
15217;DHT22;7711;46.634;14.318;2023-08-01T14:34:52;17.90;99.90
15217;DHT22;7711;46.634;14.318;2023-08-01T14:37:19;17.70;99.90
15217;DHT22;7711;46.634;14.318;2023-08-01T14:39:50;17.60;99.90
15217;DHT22;7711;46.634;14.318;2023-08-01T14:42:17;17.60;99.90
15217;DHT22;7711;46.634;14.318;2023-08-01T14:44:44;17.50;99.90
15217;DHT22;7711;46.634;14.318;2023-08-01T14:47:11;17.00;99.90
15217;DHT22;7711;46.634;14.318;2023-08-01T14:49:38;16.60;99.90
15217;DHT22;7711;46.634;14.318;2023-08-01T14:52:06;16.40;99.90
15217;DHT22;7711;46.634;14.318;2023-08-01T14:54:33;16.30;1.00
15217;DHT22;7711;46.634;14.318;2023-08-01T14:57:03;16.20;1.00
15217;DHT22;7711;46.634;14.318;2023-08-01T14:59:30;16.00;1.00
15217;DHT22;7711;46.634;14.318;2023-08-01T15:01:57;15.90;1.00
15217;DHT22;7711;46.634;14.318;2023-08-01T15:04:24;15.80;1.00
15217;DHT22;7711;46.634;14.318;2023-08-01T15:06:52;15.80;61.20
15217;DHT22;7711;46.634;14.318;2023-08-01T15:09:19;15.80;1.00
15217;DHT22;7711;46.634;14.318;2023-08-01T15:11:46;15.70;1.00
15217;DHT22;7711;46.634;14.318;2023-08-01T15:14:14;15.50;99.90
15217;DHT22;7711;46.634;14.318;2023-08-01T15:16:41;15.50;99.90
15217;DHT22;7711;46.634;14.318;2023-08-01T15:19:08;15.50;4.90
15217;DHT22;7711;46.634;14.318;2023-08-01T15:21:35;15.40;1.00
15217;DHT22;7711;46.634;14.318;2023-08-01T15:24:02;15.40;1.00
15217;DHT22;7711;46.634;14.318;2023-08-01T15:26:29;15.40;1.00
15217;DHT22;7711;46.634;14.318;2023-08-01T15:28:56;15.30;99.90
15217;DHT22;7711;46.634;14.318;2023-08-01T15:31:25;15.40;1.00
15217;DHT22;7711;46.634;14.318;2023-08-01T15:33:52;15.40;1.00
15217;DHT22;7711;46.634;14.318;2023-08-01T15:36:26;15.40;14.30
15217;DHT22;7711;46.634;14.318;2023-08-01T15:38:53;15.50;99.90
15217;DHT22;7711;46.634;14.318;2023-08-01T15:41:22;15.40;1.00
15217;DHT22;7711;46.634;14.318;2023-08-01T15:43:49;15.50;1.00
15217;DHT22;7711;46.634;14.318;2023-08-01T15:46:16;15.50;1.00